Time;durP1;ratioP1;P1;durP2;ratioP2;P2;SDS_P1;SDS_P2;PMS_P1;PMS_P2;Temp;Humidity;BMP_temperature;BMP_pressure;BME280_temperature;BME280_humidity;BME280_pressure;Samples;Min_cycle;Max_cycle;Signal;HPM_P1;HPM_P2
2022/10/11 00:00:19;;;;;;;11.60;2.80;;;8.20;99.90;;;;;;5010249;28;20083;-62
2022/10/11 00:02:45;;;;;;;8.10;2.38;;;8.10;99.90;;;;;;5027441;28;20068;-64
2022/10/11 00:05:11;;;;;;;9.50;2.45;;;8.10;99.90;;;;;;5027666;28;20535;-64
2022/10/11 00:07:37;;;;;;;14.75;3.03;;;8.10;99.90;;;;;;5003584;28;20575;-63
2022/10/11 00:10:05;;;;;;;15.93;2.88;;;8.10;99.90;;;;;;5024157;28;20494;-64
2022/10/11 00:12:30;;;;;;;10.77;2.55;;;8.10;99.90;;;;;;5019162;28;20037;-64
2022/10/11 00:14:56;;;;;;;7.35;2.20;;;8.10;99.90;;;;;;5029274;28;20052;-63
2022/10/11 00:17:22;;;;;;;10.48;2.65;;;8.10;99.90;;;;;;5000491;28;20045;-63
2022/10/11 00:19:47;;;;;;;8.13;2.60;;;8.00;99.90;;;;;;5024458;28;20404;-63
2022/10/11 00:22:13;;;;;;;7.88;2.47;;;8.00;99.90;;;;;;5001498;28;20037;-63
2022/10/11 00:24:38;;;;;;;9.55;2.53;;;8.00;99.90;;;;;;5016481;28;20033;-63
2022/10/11 00:27:04;;;;;;;13.10;3.05;;;8.00;99.90;;;;;;5020693;28;20120;-63
2022/10/11 00:29:30;;;;;;;11.57;2.40;;;8.00;99.90;;;;;;5026607;28;20065;-61
2022/10/11 00:31:55;;;;;;;9.10;2.40;;;8.00;99.90;;;;;;5029458;28;20034;-63
2022/10/11 00:34:21;;;;;;;11.85;2.60;;;8.00;99.90;;;;;;5018189;28;20056;-63
2022/10/11 00:36:47;;;;;;;10.45;2.88;;;8.10;99.90;;;;;;5024799;28;20065;-63
2022/10/11 00:39:12;;;;;;;12.00;2.80;;;8.00;99.90;;;;;;4995267;28;20111;-64
2022/10/11 00:41:38;;;;;;;11.55;2.60;;;8.00;99.90;;;;;;5024044;28;20386;-64
2022/10/11 00:44:22;;;;;;;7.55;2.63;;;8.00;99.90;;;;;;5023354;28;20092;-63
2022/10/11 00:46:56;;;;;;;7.70;2.30;;;8.00;99.90;;;;;;5024612;28;20398;-63
2022/10/11 00:49:36;;;;;;;10.30;2.50;;;8.00;99.90;;;;;;5017810;28;20052;-64
2022/10/11 00:52:30;;;;;;;5.57;2.50;;;8.00;99.90;;;;;;5027382;28;20075;-63
2022/10/11 00:55:04;;;;;;;9.63;2.50;;;7.90;99.90;;;;;;5011176;28;20046;-63
2022/10/11 00:57:35;;;;;;;9.23;2.95;;;8.00;99.90;;;;;;5014150;28;20398;-63
2022/10/11 01:00:06;;;;;;;9.77;2.42;;;7.90;99.90;;;;;;5004196;28;20072;-61
2022/10/11 01:02:32;;;;;;;8.57;2.40;;;7.90;99.90;;;;;;5017553;28;20076;-63
2022/10/11 01:04:58;;;;;;;5.88;2.00;;;7.90;99.90;;;;;;5022373;28;20065;-63
2022/10/11 01:07:26;;;;;;;6.82;2.10;;;7.90;99.90;;;;;;5020319;28;20038;-62
2022/10/11 01:09:52;;;;;;;6.63;2.10;;;7.80;99.90;;;;;;4999406;28;20045;-62
2022/10/11 01:12:21;;;;;;;5.75;2.08;;;7.80;99.90;;;;;;5023918;28;20477;-62
2022/10/11 01:15:06;;;;;;;8.65;2.13;;;7.70;99.90;;;;;;5017368;28;20054;-62
2022/10/11 01:17:31;;;;;;;12.13;2.92;;;7.70;99.90;;;;;;5018515;28;20547;-63
2022/10/11 01:20:25;;;;;;;10.30;2.60;;;7.70;99.90;;;;;;5047514;23;20447;-62
2022/10/11 01:22:59;;;;;;;7.03;2.47;;;7.80;99.90;;;;;;5049287;28;20530;-62
2022/10/11 01:25:49;;;;;;;8.82;2.05;;;7.80;99.90;;;;;;5032299;28;20521;-62
2022/10/11 01:28:21;;;;;;;7.32;2.15;;;7.80;99.90;;;;;;5050573;28;20041;-62
2022/10/11 01:30:47;;;;;;;8.98;2.35;;;7.80;99.90;;;;;;5032176;28;20041;-62
2022/10/11 01:33:37;;;;;;;4.90;2.20;;;7.80;99.90;;;;;;5032359;28;20040;-63
2022/10/11 01:36:12;;;;;;;7.20;2.47;;;7.70;99.90;;;;;;5047132;28;20052;-62
2022/10/11 01:38:45;;;;;;;9.52;2.00;;;7.70;99.90;;;;;;5050061;28;20037;-61
2022/10/11 01:41:13;;;;;;;;;;;7.60;99.90;;;;;;5047374;28;20049;-61
2022/10/11 01:43:41;;;;;;;7.47;2.40;;;7.60;99.90;;;;;;5045274;28;19921;-62
2022/10/11 01:46:08;;;;;;;8.70;2.35;;;7.60;99.90;;;;;;5049064;28;20029;-61
2022/10/11 01:48:48;;;;;;;5.80;2.08;;;7.60;99.90;;;;;;5049786;28;20043;-62
2022/10/11 01:51:14;;;;;;;8.60;2.28;;;7.50;99.90;;;;;;5048848;28;20041;-62
2022/10/11 01:54:10;;;;;;;6.75;2.10;;;7.50;99.90;;;;;;5049990;28;20044;-61
2022/10/11 01:56:59;;;;;;;7.72;2.30;;;7.50;99.90;;;;;;5036156;28;20045;-62
2022/10/11 01:59:57;;;;;;;5.10;1.92;;;7.40;99.90;;;;;;5053531;28;20037;-62
2022/10/11 02:02:38;;;;;;;6.57;2.10;;;7.40;99.90;;;;;;5053827;28;20067;-61
2022/10/11 02:05:24;;;;;;;11.38;2.63;;;7.40;99.90;;;;;;5035772;28;20041;-62
2022/10/11 02:08:25;;;;;;;5.90;2.03;;;7.40;99.90;;;;;;5045620;28;20412;-62
2022/10/11 02:11:12;;;;;;;7.25;2.15;;;7.40;99.90;;;;;;5053806;28;20512;-62
2022/10/11 02:13:50;;;;;;;9.93;2.63;;;7.30;99.90;;;;;;5035102;28;20433;-62
2022/10/11 02:16:20;;;;;;;7.22;2.20;;;7.30;99.90;;;;;;5053954;28;20454;-62
2022/10/11 02:18:50;;;;;;;8.40;2.20;;;7.30;99.90;;;;;;5053043;28;20045;-62
2022/10/11 02:21:19;;;;;;;6.45;2.03;;;7.30;99.90;;;;;;5053575;28;20070;-62
2022/10/11 02:24:08;;;;;;;5.03;1.90;;;7.30;99.90;;;;;;5017566;28;21031;-61
2022/10/11 02:26:35;;;;;;;7.38;2.30;;;7.30;99.90;;;;;;5027036;28;20460;-62
2022/10/11 02:29:05;;;;;;;7.95;2.17;;;7.30;99.90;;;;;;5049624;28;20269;-62
2022/10/11 02:31:33;;;;;;;5.63;1.95;;;7.20;99.90;;;;;;5052377;28;20120;-61
2022/10/11 02:34:13;;;;;;;3.42;1.58;;;7.20;99.90;;;;;;5051125;28;20045;-62
2022/10/11 02:36:53;;;;;;;8.75;2.45;;;7.20;99.90;;;;;;5035046;28;20068;-62
2022/10/11 02:39:38;;;;;;;3.88;1.73;;;7.20;99.90;;;;;;5051638;28;20044;-63
2022/10/11 02:42:09;;;;;;;6.03;1.70;;;7.20;99.90;;;;;;5043885;28;20045;-61
2022/10/11 02:44:41;;;;;;;5.53;1.98;;;7.10;99.90;;;;;;5053141;28;20044;-62
2022/10/11 02:47:08;;;;;;;5.47;1.90;;;7.20;99.90;;;;;;5034744;28;20048;-62
2022/10/11 02:49:34;;;;;;;4.47;1.80;;;7.20;99.90;;;;;;5052466;28;20513;-62
2022/10/11 02:51:59;;;;;;;6.88;2.00;;;7.20;99.90;;;;;;5053358;28;20066;-62
2022/10/11 02:54:26;;;;;;;7.78;2.08;;;7.10;99.90;;;;;;5052505;28;20124;-62
2022/10/11 02:56:52;;;;;;;9.05;2.33;;;7.10;99.90;;;;;;5048057;28;20047;-62
2022/10/11 02:59:17;;;;;;;5.10;1.77;;;7.10;99.90;;;;;;5028830;28;20463;-62
2022/10/11 03:01:43;;;;;;;3.58;1.90;;;7.00;99.90;;;;;;5050559;28;20043;-62
2022/10/11 03:04:08;;;;;;;5.55;1.83;;;7.10;99.90;;;;;;5034203;28;20049;-62
2022/10/11 03:06:34;;;;;;;5.18;1.85;;;7.00;99.90;;;;;;5034488;28;20040;-61
2022/10/11 03:09:00;;;;;;;5.28;1.70;;;7.00;99.90;;;;;;5047963;28;20061;-62
2022/10/11 03:11:25;;;;;;;5.03;1.83;;;7.00;99.90;;;;;;5052221;28;20043;-62
2022/10/11 03:13:51;;;;;;;4.70;1.55;;;7.00;99.90;;;;;;5052047;28;20041;-62
2022/10/11 03:16:17;;;;;;;4.03;2.00;;;6.90;99.90;;;;;;5052295;28;20068;-62
2022/10/11 03:18:42;;;;;;;5.65;1.95;;;7.00;99.90;;;;;;5043336;28;20037;-61
2022/10/11 03:21:08;;;;;;;6.43;1.75;;;7.00;99.90;;;;;;5052080;28;20032;-62
2022/10/11 03:23:34;;;;;;;7.82;1.98;;;6.90;99.90;;;;;;5044983;28;20028;-61
2022/10/11 03:25:59;;;;;;;3.33;1.70;;;6.90;99.90;;;;;;5051801;28;20032;-62
2022/10/11 03:28:25;;;;;;;4.57;1.70;;;6.90;99.90;;;;;;5043788;28;20040;-62
2022/10/11 03:30:51;;;;;;;6.13;1.58;;;6.80;99.90;;;;;;5033934;28;20045;-62
2022/10/11 03:33:18;;;;;;;3.97;1.40;;;6.80;99.90;;;;;;5052089;28;20044;-62
2022/10/11 03:35:44;;;;;;;3.35;1.48;;;6.80;99.90;;;;;;5023503;28;20037;-61
2022/10/11 03:38:16;;;;;;;4.82;1.75;;;6.80;99.90;;;;;;5044086;28;20048;-62
2022/10/11 03:40:42;;;;;;;5.88;1.50;;;6.70;99.90;;;;;;5009675;28;20512;-62
2022/10/11 03:43:08;;;;;;;5.50;2.03;;;6.70;99.90;;;;;;5029339;28;20067;-62
2022/10/11 03:45:35;;;;;;;5.63;1.80;;;6.70;99.90;;;;;;5034141;28;20544;-62
2022/10/11 03:48:00;;;;;;;6.63;2.00;;;6.70;99.90;;;;;;5051822;28;20413;-60
2022/10/11 03:50:26;;;;;;;5.00;1.70;;;6.70;99.90;;;;;;5033676;28;20036;-62
2022/10/11 03:52:52;;;;;;;4.25;1.73;;;6.70;99.90;;;;;;5033845;28;20056;-62
2022/10/11 03:55:17;;;;;;;4.10;1.58;;;6.70;99.90;;;;;;5051100;28;20037;-62
2022/10/11 03:57:43;;;;;;;7.28;1.70;;;6.70;99.90;;;;;;5051752;28;20113;-62
2022/10/11 04:00:09;;;;;;;10.20;1.67;;;6.70;99.90;;;;;;5050724;28;20032;-62
2022/10/11 04:02:35;;;;;;;6.50;1.98;;;6.70;99.90;;;;;;5047469;28;20522;-61
2022/10/11 04:05:01;;;;;;;4.20;1.60;;;6.70;99.90;;;;;;5051329;28;20033;-62
2022/10/11 04:07:27;;;;;;;7.80;2.05;;;6.70;99.90;;;;;;5043636;28;20028;-63
2022/10/11 04:09:53;;;;;;;6.35;1.83;;;6.70;99.90;;;;;;5027424;28;20087;-62
2022/10/11 04:12:19;;;;;;;4.78;1.55;;;6.70;99.90;;;;;;5027446;28;20531;-62
2022/10/11 04:14:44;;;;;;;8.20;2.50;;;6.60;99.90;;;;;;5046764;28;20072;-62
2022/10/11 04:17:10;;;;;;;9.25;1.95;;;6.60;99.90;;;;;;5050514;28;20033;-62
2022/10/11 04:19:36;;;;;;;6.63;1.92;;;6.60;99.90;;;;;;5033213;28;20055;-63
2022/10/11 04:22:05;;;;;;;7.68;1.83;;;6.60;99.90;;;;;;5026587;28;20039;-61
2022/10/11 04:24:31;;;;;;;6.05;2.00;;;6.60;99.90;;;;;;5033371;28;20079;-62
2022/10/11 04:26:57;;;;;;;4.20;1.35;;;6.50;99.90;;;;;;5045627;28;20028;-61
2022/10/11 04:29:23;;;;;;;5.85;1.88;;;6.50;99.90;;;;;;5027210;28;20057;-62
2022/10/11 04:31:50;;;;;;;5.55;1.55;;;6.50;99.90;;;;;;5045792;28;20076;-61
2022/10/11 04:34:16;;;;;;;5.72;1.48;;;6.50;99.90;;;;;;5033006;28;20059;-62
2022/10/11 04:36:42;;;;;;;6.03;1.60;;;6.50;99.90;;;;;;5032848;28;20040;-62
2022/10/11 04:39:08;;;;;;;3.55;1.45;;;6.50;99.90;;;;;;5032618;28;20431;-62
2022/10/11 04:41:34;;;;;;;3.90;1.48;;;6.50;99.90;;;;;;5051021;28;20040;-61
2022/10/11 04:44:00;;;;;;;3.90;1.60;;;6.50;99.90;;;;;;5046191;28;20118;-61
2022/10/11 04:46:26;;;;;;;5.05;1.70;;;6.50;99.90;;;;;;5032824;28;20068;-63
2022/10/11 04:48:51;;;;;;;4.90;1.90;;;6.50;99.90;;;;;;5029123;28;20052;-62
2022/10/11 04:51:18;;;;;;;5.47;1.70;;;6.50;99.90;;;;;;5029973;28;20048;-62
2022/10/11 04:53:44;;;;;;;9.73;1.85;;;6.50;99.90;;;;;;5033029;28;20090;-62
2022/10/11 04:56:10;;;;;;;5.35;1.60;;;6.50;99.90;;;;;;5032507;28;20132;-61
2022/10/11 04:58:36;;;;;;;6.18;2.13;;;6.50;99.90;;;;;;5032327;28;20048;-61
2022/10/11 05:01:03;;;;;;;4.05;2.08;;;6.50;99.90;;;;;;5050420;28;20033;-62
2022/10/11 05:03:29;;;;;;;4.68;1.52;;;6.50;99.90;;;;;;5042098;28;20048;-62
2022/10/11 05:05:55;;;;;;;8.30;1.83;;;6.50;99.90;;;;;;5050518;28;20068;-62
2022/10/11 05:08:22;;;;;;;5.60;1.75;;;6.50;99.90;;;;;;5032050;28;20080;-62
2022/10/11 05:11:17;;;;;;;6.53;1.90;;;6.40;99.90;;;;;;5032064;28;20544;-61
2022/10/11 05:13:43;;;;;;;5.20;2.00;;;6.50;99.90;;;;;;5017797;28;20059;-62
2022/10/11 05:16:09;;;;;;;8.40;1.98;;;6.50;99.90;;;;;;5050471;28;20075;-62
2022/10/11 05:18:35;;;;;;;7.10;2.03;;;6.50;99.90;;;;;;5045428;28;20049;-62
2022/10/11 05:21:07;;;;;;;7.70;1.90;;;6.50;99.90;;;;;;5050330;28;20043;-62
2022/10/11 05:23:34;;;;;;;8.20;2.13;;;6.50;99.90;;;;;;5028970;28;20092;-62
2022/10/11 05:26:00;;;;;;;6.00;1.90;;;6.60;99.90;;;;;;5050667;28;20052;-61
2022/10/11 05:28:26;;;;;;;7.15;2.30;;;6.60;99.90;;;;;;5051636;28;20079;-62
2022/10/11 05:30:53;;;;;;;5.28;2.17;;;6.60;99.90;;;;;;5054381;28;20068;-62
2022/10/11 05:33:19;;;;;;;7.88;2.03;;;6.60;99.90;;;;;;5049883;28;20033;-62
2022/10/11 05:35:44;;;;;;;7.30;2.17;;;6.60;99.90;;;;;;5054148;28;20033;-62
2022/10/11 05:38:10;;;;;;;5.03;2.40;;;6.60;99.90;;;;;;5054313;28;20041;-61
2022/10/11 05:40:37;;;;;;;7.03;2.15;;;6.60;99.90;;;;;;5053816;28;20036;-62
2022/10/11 05:43:03;;;;;;;7.68;2.22;;;6.60;99.90;;;;;;5028012;28;20037;-62
2022/10/11 05:45:31;;;;;;;5.53;2.40;;;6.60;99.90;;;;;;5036286;28;20033;-61
2022/10/11 05:47:56;;;;;;;4.40;1.90;;;6.60;99.90;;;;;;5032995;28;20128;-61
2022/10/11 05:50:22;;;;;;;8.13;2.28;;;6.50;99.90;;;;;;5050421;28;20137;-62
2022/10/11 05:52:48;;;;;;;8.43;2.17;;;6.50;99.90;;;;;;5049178;28;20102;-62
2022/10/11 05:55:14;;;;;;;6.78;2.40;;;6.50;99.90;;;;;;5054009;28;20401;-62
2022/10/11 05:57:39;;;;;;;8.90;2.30;;;6.50;99.90;;;;;;5046362;28;20071;-62
2022/10/11 06:00:05;;;;;;;7.50;2.10;;;6.50;99.90;;;;;;5030848;28;20029;-61
2022/10/11 06:02:33;;;;;;;4.22;2.00;;;6.50;99.90;;;;;;5052686;28;20032;-62
2022/10/11 06:04:58;;;;;;;5.95;2.45;;;6.50;99.90;;;;;;5045245;28;20037;-62
2022/10/11 06:07:24;;;;;;;5.90;2.10;;;6.50;99.90;;;;;;5053628;28;20032;-62
2022/10/11 06:09:50;;;;;;;5.32;2.00;;;6.50;99.90;;;;;;5035197;28;20040;-62
2022/10/11 06:12:16;;;;;;;6.75;2.30;;;6.50;99.90;;;;;;5035626;28;20115;-61
2022/10/11 06:14:42;;;;;;;7.68;2.50;;;6.50;99.90;;;;;;5053841;28;20160;-62
2022/10/11 06:17:08;;;;;;;6.88;2.45;;;6.50;99.90;;;;;;5053345;28;20025;-62
2022/10/11 06:19:33;;;;;;;7.28;2.28;;;6.50;99.90;;;;;;5052768;28;20036;-62
2022/10/11 06:22:15;;;;;;;8.32;2.80;;;6.50;99.90;;;;;;5051949;28;20116;-62
2022/10/11 06:24:40;;;;;;;6.68;2.47;;;6.50;99.90;;;;;;5035948;28;20037;-62
2022/10/11 06:27:07;;;;;;;5.57;2.35;;;6.50;99.90;;;;;;5034974;28;20041;-62
2022/10/11 06:29:33;;;;;;;8.05;2.35;;;6.50;99.90;;;;;;5053283;28;20126;-62
2022/10/11 06:31:58;;;;;;;6.38;2.42;;;6.50;99.90;;;;;;5031547;28;20041;-62
2022/10/11 06:34:24;;;;;;;5.90;2.45;;;6.50;99.90;;;;;;5052770;28;20033;-61
2022/10/11 06:36:50;;;;;;;8.68;2.65;;;6.50;99.90;;;;;;5035477;28;20059;-62
2022/10/11 06:39:15;;;;;;;5.68;2.25;;;6.50;99.90;;;;;;5034385;28;20532;-62
2022/10/11 06:41:41;;;;;;;11.48;2.55;;;6.50;99.90;;;;;;5053191;28;20031;-61
2022/10/11 06:44:10;;;;;;;4.32;2.25;;;6.50;99.90;;;;;;5048581;28;20044;-62
2022/10/11 06:46:36;;;;;;;6.00;2.60;;;6.60;99.90;;;;;;5045829;28;20433;-62
2022/10/11 06:49:02;;;;;;;9.63;3.10;;;6.60;99.90;;;;;;5052812;28;20252;-62
2022/10/11 06:51:29;;;;;;;6.07;2.65;;;6.60;99.90;;;;;;5044868;28;20037;-61
2022/10/11 06:53:56;;;;;;;8.55;2.75;;;6.60;99.90;;;;;;5050025;28;20044;-62
2022/10/11 06:56:24;;;;;;;10.95;2.97;;;6.60;99.90;;;;;;5029678;28;20701;-62
2022/10/11 06:58:50;;;;;;;7.53;2.95;;;6.60;99.90;;;;;;5052200;28;20041;-61
2022/10/11 07:01:18;;;;;;;11.65;3.08;;;6.70;99.90;;;;;;5029896;28;20496;-62
2022/10/11 07:03:44;;;;;;;11.57;3.38;;;6.70;99.90;;;;;;5052905;28;20033;-62
2022/10/11 07:06:13;;;;;;;9.90;3.13;;;6.70;99.90;;;;;;5052871;28;20041;-61
2022/10/11 07:08:39;;;;;;;9.15;2.90;;;6.70;99.90;;;;;;5033491;28;20472;-62
2022/10/11 07:11:14;;;;;;;8.95;2.88;;;6.80;99.90;;;;;;5049613;28;20080;-62
2022/10/11 07:13:40;;;;;;;11.60;3.00;;;6.80;99.90;;;;;;5034393;28;20043;-60
2022/10/11 07:16:09;;;;;;;8.70;3.47;;;6.80;99.90;;;;;;5034629;28;20053;-61
2022/10/11 07:18:34;;;;;;;8.50;3.00;;;6.90;99.90;;;;;;5029461;28;20489;-61
2022/10/11 07:21:06;;;;;;;9.30;2.90;;;6.90;99.90;;;;;;5061496;22;20053;-74
2022/10/11 07:23:32;;;;;;;6.53;2.90;;;6.90;99.90;;;;;;5033158;28;20041;-74
2022/10/11 07:25:58;;;;;;;11.52;3.42;;;7.00;99.90;;;;;;5027475;28;20076;-74
2022/10/11 07:28:24;;;;;;;6.53;2.63;;;7.00;99.90;;;;;;5033506;28;20056;-74
2022/10/11 07:30:50;;;;;;;7.50;2.95;;;7.00;99.90;;;;;;5034041;28;20049;-74
2022/10/11 07:33:15;;;;;;;9.15;3.38;;;7.10;99.90;;;;;;5033030;28;20068;-74
2022/10/11 07:35:41;;;;;;;11.80;3.47;;;7.10;99.90;;;;;;5027711;28;20051;-74
2022/10/11 07:38:07;;;;;;;8.98;3.30;;;7.20;99.90;;;;;;5029213;28;20059;-74
2022/10/11 07:40:39;;;;;;;10.30;3.20;;;7.20;99.90;;;;;;5029073;28;20029;-74
2022/10/11 07:43:05;;;;;;;10.85;3.15;;;7.10;99.90;;;;;;5030990;28;20071;-74
2022/10/11 07:45:30;;;;;;;11.05;2.95;;;7.10;99.90;;;;;;5052195;28;20061;-75
2022/10/11 07:47:56;;;;;;;11.25;3.08;;;7.10;99.90;;;;;;5028187;28;20044;-75
2022/10/11 07:50:23;;;;;;;11.82;3.22;;;7.20;99.90;;;;;;5031049;28;20159;-75
2022/10/11 07:52:49;;;;;;;9.63;3.38;;;7.20;99.90;;;;;;5026707;28;20071;-75
2022/10/11 07:55:14;;;;;;;9.52;3.65;;;7.20;99.90;;;;;;5027634;28;20041;-74
2022/10/11 07:57:40;;;;;;;8.45;3.20;;;7.30;99.90;;;;;;5033036;28;20041;-75
2022/10/11 08:00:06;;;;;;;11.73;3.17;;;7.40;99.90;;;;;;5027316;28;20044;-75
2022/10/11 08:02:32;;;;;;;11.27;3.47;;;7.40;99.90;;;;;;5031450;28;20044;-75
2022/10/11 08:04:58;;;;;;;11.70;3.10;;;7.50;99.90;;;;;;5013170;28;20033;-75
2022/10/11 08:07:23;;;;;;;9.82;3.40;;;7.60;99.90;;;;;;5031851;28;20037;-75
2022/10/11 08:09:49;;;;;;;12.43;3.72;;;7.70;99.90;;;;;;5033607;28;20494;-75
2022/10/11 08:12:14;;;;;;;10.15;3.42;;;7.80;99.90;;;;;;5030880;28;20449;-75
2022/10/11 08:14:40;;;;;;;13.35;3.28;;;7.90;99.90;;;;;;5034056;28;20045;-75
2022/10/11 08:17:07;;;;;;;10.48;3.85;;;7.90;99.90;;;;;;5033541;28;20534;-75
2022/10/11 08:19:32;;;;;;;12.48;3.83;;;8.00;99.90;;;;;;5032448;28;20068;-75
2022/10/11 08:21:58;;;;;;;10.68;3.63;;;8.00;99.90;;;;;;5022918;28;20057;-75
2022/10/11 08:24:24;;;;;;;16.60;3.80;;;8.00;99.90;;;;;;5031790;28;20560;-75
2022/10/11 08:26:50;;;;;;;11.27;3.58;;;8.00;99.90;;;;;;5027968;28;20529;-75
2022/10/11 08:29:16;;;;;;;10.93;3.38;;;8.00;99.90;;;;;;5031199;28;20076;-75
2022/10/11 08:31:43;;;;;;;10.57;3.22;;;8.10;99.90;;;;;;5026987;28;20072;-75
2022/10/11 08:34:10;;;;;;;14.20;4.32;;;8.10;99.90;;;;;;5033660;28;20082;-75
2022/10/11 08:36:36;;;;;;;13.63;3.22;;;8.20;99.90;;;;;;5025257;28;20041;-75
2022/10/11 08:39:03;;;;;;;20.60;3.38;;;8.20;99.90;;;;;;5045937;28;20045;-75
2022/10/11 08:41:41;;;;;;;17.67;3.97;;;8.30;99.90;;;;;;5013498;28;20033;-75
2022/10/11 08:44:27;;;;;;;14.85;4.03;;;8.40;99.90;;;;;;5024361;28;20040;-75
2022/10/11 08:47:05;;;;;;;12.80;3.30;;;8.50;99.90;;;;;;5028829;28;20167;-75
2022/10/11 08:49:33;;;;;;;14.75;3.28;;;8.50;99.90;;;;;;5034913;28;20041;-78
2022/10/11 08:52:06;;;;;;;12.48;3.28;;;8.60;99.90;;;;;;5016715;28;20044;-79
2022/10/11 08:55:01;;;;;;;13.10;3.30;;;8.70;99.90;;;;;;5032111;28;20076;-78
2022/10/11 08:57:31;;;;;;;15.13;3.25;;;8.80;99.90;;;;;;5024762;28;20081;-78
2022/10/11 09:00:01;;;;;;;12.60;3.33;;;8.80;99.90;;;;;;5032942;28;20166;-78
2022/10/11 09:02:38;;;;;;;13.68;3.80;;;9.00;99.90;;;;;;5030155;28;20399;-78
2022/10/11 09:05:04;;;;;;;16.10;4.18;;;9.00;99.90;;;;;;5022941;28;20048;-78
2022/10/11 09:07:59;;;;;;;13.63;3.15;;;9.10;99.90;;;;;;5031728;28;20041;-78
2022/10/11 09:10:33;;;;;;;14.30;3.72;;;9.20;99.90;;;;;;5023461;28;20410;-78
2022/10/11 09:13:18;;;;;;;18.13;3.40;;;9.30;99.90;;;;;;5033261;28;20045;-78
2022/10/11 09:16:01;;;;;;;15.05;3.47;;;9.40;99.90;;;;;;5033339;28;20508;-78
2022/10/11 09:18:38;;;;;;;15.45;3.40;;;9.50;99.90;;;;;;5040281;28;20480;-78
2022/10/11 09:21:31;;;;;;;16.35;3.60;;;9.60;99.90;;;;;;5025957;28;20036;-78
2022/10/11 09:24:12;;;;;;;17.40;3.55;;;9.70;99.90;;;;;;5031606;28;20037;-78
2022/10/11 09:26:37;;;;;;;12.52;3.70;;;9.80;99.90;;;;;;5024516;28;20033;-78
2022/10/11 09:29:12;;;;;;;12.48;3.15;;;9.90;99.90;;;;;;5028127;28;20050;-78
2022/10/11 09:31:37;;;;;;;14.85;3.17;;;10.00;99.90;;;;;;5033230;28;20045;-78
2022/10/11 09:34:12;;;;;;;18.65;3.15;;;10.10;99.90;;;;;;5044290;28;20086;-78
2022/10/11 09:36:44;;;;;;;15.00;3.58;;;10.20;99.90;;;;;;5029139;28;20040;-78
2022/10/11 09:39:28;;;;;;;12.07;3.03;;;10.30;99.90;;;;;;5022476;28;20075;-77
2022/10/11 09:42:06;;;;;;;10.93;2.80;;;10.40;99.90;;;;;;5021466;28;20045;-77
2022/10/11 09:44:44;;;;;;;13.80;2.75;;;10.50;99.90;;;;;;5026222;28;20434;-78
2022/10/11 09:47:15;;;;;;;13.68;2.45;;;10.50;99.90;;;;;;5014300;28;20072;-78
2022/10/11 09:49:46;;;;;;;14.68;2.83;;;10.60;99.90;;;;;;5035257;28;20053;-78
2022/10/11 09:52:18;;;;;;;11.23;2.45;;;10.70;99.90;;;;;;5029718;28;20052;-78
2022/10/11 09:54:50;;;;;;;15.70;2.97;;;10.80;99.90;;;;;;5036799;28;20087;-75
2022/10/11 09:57:24;;;;;;;18.13;3.17;;;10.90;99.90;;;;;;5023935;28;20045;-77
2022/10/11 10:00:26;;;;;;;14.00;2.97;;;11.00;99.90;;;;;;5011258;28;20049;-78
2022/10/11 10:02:55;;;;;;;14.60;2.60;;;11.10;99.90;;;;;;5020667;28;20073;-78
2022/10/11 10:05:32;;;;;;;14.50;2.58;;;11.30;99.90;;;;;;5028972;28;20045;-79
2022/10/11 10:08:10;;;;;;;15.32;2.90;;;11.30;99.90;;;;;;5034585;28;20525;-78
2022/10/11 10:10:50;;;;;;;15.85;2.45;;;11.40;99.90;;;;;;5050716;28;20376;-79
2022/10/11 10:13:37;;;;;;;12.07;2.50;;;11.50;99.90;;;;;;5036916;28;20041;-79
2022/10/11 10:16:04;;;;;;;11.45;2.35;;;11.70;99.90;;;;;;5042537;28;20387;-79
2022/10/11 10:18:41;;;;;;;13.10;2.75;;;11.80;99.90;;;;;;5037408;28;20042;-79
2022/10/11 10:21:11;;;;;;;15.02;2.60;;;11.90;99.90;;;;;;5041349;28;20037;-78
2022/10/11 10:23:36;;;;;;;15.98;2.60;;;12.10;99.90;;;;;;5039486;28;20564;-78
2022/10/11 10:26:20;;;;;;;13.50;2.58;;;12.20;99.90;;;;;;5040368;28;20032;-78
2022/10/11 10:29:00;;;;;;;13.70;2.70;;;12.30;99.90;;;;;;5046440;28;20043;-79
2022/10/11 10:31:53;;;;;;;11.30;2.08;;;12.40;99.90;;;;;;5037935;28;20384;-79
2022/10/11 10:34:32;;;;;;;14.85;2.80;;;12.50;99.90;;;;;;5031245;28;20049;-79
2022/10/11 10:37:11;;;;;;;12.57;2.58;;;12.60;99.90;;;;;;5037556;28;20045;-79
2022/10/11 10:40:09;;;;;;;12.23;2.33;;;12.60;99.90;;;;;;5033186;28;20037;-79
2022/10/11 10:42:35;;;;;;;13.05;2.40;;;12.80;99.90;;;;;;5008742;28;20045;-79
2022/10/11 10:45:01;;;;;;;11.95;2.55;;;13.00;99.90;;;;;;5024148;28;20111;-79
2022/10/11 10:47:51;;;;;;;11.15;2.40;;;13.20;99.90;;;;;;5032203;28;20036;-79
2022/10/11 10:50:34;;;;;;;7.82;2.38;;;13.30;99.90;;;;;;5031253;28;20045;-79
2022/10/11 10:53:10;;;;;;;;;;;13.40;99.90;;;;;;5034489;28;20033;-79
2022/10/11 10:55:42;;;;;;;14.43;2.90;;;13.50;99.90;;;;;;5037853;28;19976;-78
2022/10/11 10:58:31;;;;;;;;;;;13.50;99.90;;;;;;5052569;28;20055;-78
2022/10/11 11:01:25;;;;;;;11.30;2.53;;;13.60;99.90;;;;;;5028111;28;19924;-78
2022/10/11 11:04:04;;;;;;;11.57;2.60;;;13.60;99.90;;;;;;5029128;28;20037;-79
2022/10/11 11:06:45;;;;;;;13.02;2.25;;;13.70;99.90;;;;;;5039244;28;20098;-77
2022/10/11 11:09:39;;;;;;;8.07;2.20;;;13.80;99.90;;;;;;5043819;28;20052;-77
2022/10/11 11:12:12;;;;;;;8.30;2.15;;;13.90;99.90;;;;;;5027531;28;20057;-78
2022/10/11 11:14:57;;;;;;;13.02;2.75;;;14.00;99.90;;;;;;5031287;28;20041;-78
2022/10/11 11:18:01;;;;;;;13.65;2.35;;;14.10;99.90;;;;;;5034525;28;20124;-78
2022/10/11 11:20:36;;;;;;;10.00;2.35;;;14.20;99.90;;;;;;5023603;28;20049;-78
2022/10/11 11:23:08;;;;;;;11.75;2.40;;;14.20;99.90;;;;;;5023956;28;20522;-78
2022/10/11 11:25:38;;;;;;;9.85;2.47;;;14.20;99.90;;;;;;5025131;28;20052;-78
2022/10/11 11:28:17;;;;;;;11.50;2.70;;;14.30;99.90;;;;;;5035490;28;20048;-78
2022/10/11 11:30:51;;;;;;;14.23;2.72;;;14.40;99.90;;;;;;5029909;28;20125;-78
2022/10/11 11:33:54;;;;;;;12.60;2.63;;;14.40;99.90;;;;;;5023855;28;20128;-78
2022/10/11 11:36:47;;;;;;;7.65;1.88;;;14.50;99.90;;;;;;5024692;28;20474;-78
2022/10/11 11:39:20;;;;;;;12.60;2.70;;;14.60;99.90;;;;;;5024517;28;20041;-78
2022/10/11 11:41:52;;;;;;;10.85;2.30;;;14.60;99.90;;;;;;5027063;28;20036;-78
2022/10/11 11:44:30;;;;;;;11.57;1.80;;;14.80;99.90;;;;;;5033980;28;20037;-78
2022/10/11 11:47:04;;;;;;;11.25;2.65;;;14.90;99.90;;;;;;5028219;28;20037;-78
2022/10/11 11:49:36;;;;;;;17.35;2.70;;;15.00;99.90;;;;;;5034918;28;20048;-78
2022/10/11 11:52:07;;;;;;;10.48;2.33;;;15.00;99.90;;;;;;5034997;28;20049;-78
2022/10/11 11:55:01;;;;;;;14.02;2.80;;;15.00;99.90;;;;;;5016654;28;20037;-78
2022/10/11 11:57:33;;;;;;;11.32;2.30;;;15.00;99.90;;;;;;5035034;28;20037;-78
2022/10/11 12:00:24;;;;;;;9.73;2.28;;;15.10;99.90;;;;;;5030764;28;20037;-77
2022/10/11 12:02:58;;;;;;;9.82;2.13;;;15.20;99.90;;;;;;5039292;28;20036;-78
2022/10/11 12:05:27;;;;;;;9.57;2.53;;;15.30;99.90;;;;;;5025601;28;20479;-78
2022/10/11 12:08:04;;;;;;;12.88;2.58;;;15.30;99.90;;;;;;5032594;28;20076;-78
2022/10/11 12:10:33;;;;;;;11.02;2.05;;;15.30;99.90;;;;;;5031462;28;20411;-79
2022/10/11 12:13:08;;;;;;;12.48;2.50;;;15.40;99.90;;;;;;5027863;28;20044;-78
2022/10/11 12:15:35;;;;;;;8.88;2.03;;;15.30;99.90;;;;;;5026921;28;20032;-78
2022/10/11 12:18:05;;;;;;;11.00;2.00;;;15.40;99.90;;;;;;5038995;28;20049;-77
2022/10/11 12:20:35;;;;;;;9.07;2.15;;;15.50;99.90;;;;;;5022752;28;20411;-78
2022/10/11 12:23:23;;;;;;;8.27;2.20;;;15.60;99.90;;;;;;5023298;28;20037;-77
2022/10/11 12:26:27;;;;;;;10.50;2.15;;;15.70;99.90;;;;;;5021854;28;20541;-78
2022/10/11 12:29:04;;;;;;;8.27;2.22;;;15.70;99.90;;;;;;5028672;28;20053;-79
2022/10/11 12:31:33;;;;;;;9.90;2.13;;;15.70;99.90;;;;;;5022859;28;20037;-78
2022/10/11 12:34:34;;;;;;;10.07;2.25;;;15.60;99.90;;;;;;5024204;28;20122;-78
2022/10/11 12:37:23;;;;;;;8.63;2.28;;;15.70;99.90;;;;;;5027451;28;20048;-78
2022/10/11 12:39:50;;;;;;;10.38;2.30;;;15.70;99.90;;;;;;5001884;28;20071;-78
2022/10/11 12:42:19;;;;;;;8.43;2.10;;;15.60;99.90;;;;;;5027971;28;20041;-78
2022/10/11 12:45:13;;;;;;;6.97;2.00;;;15.60;99.90;;;;;;5004786;28;20048;-78
2022/10/11 12:48:14;;;;;;;13.52;2.55;;;15.50;99.90;;;;;;5027881;28;20048;-78
2022/10/11 12:50:58;;;;;;;11.25;2.15;;;15.50;99.90;;;;;;5031649;28;20048;-77
2022/10/11 12:54:05;;;;;;;7.95;2.13;;;15.50;99.90;;;;;;5008819;28;20297;-78
2022/10/11 12:56:48;;;;;;;10.13;2.42;;;15.50;99.90;;;;;;4973322;28;20042;-78
2022/10/11 12:59:20;;;;;;;6.63;2.10;;;15.50;99.90;;;;;;5026180;28;20076;-78
2022/10/11 13:01:58;;;;;;;8.07;2.08;;;15.50;99.90;;;;;;5025960;28;20095;-79
2022/10/11 13:04:31;;;;;;;8.52;1.77;;;15.50;99.90;;;;;;5030520;28;20049;-79
2022/10/11 13:07:11;;;;;;;10.30;2.03;;;15.40;99.90;;;;;;5017096;28;20041;-78
2022/10/11 13:09:39;;;;;;;11.48;2.50;;;15.40;99.90;;;;;;5024525;28;20041;-78
2022/10/11 13:12:13;;;;;;;6.88;1.88;;;15.40;99.90;;;;;;5024490;28;20216;-76
2022/10/11 13:14:45;;;;;;;10.05;2.50;;;15.40;99.90;;;;;;5005375;28;20120;-78